sensor_id;sensor_type;location;lat;lon;timestamp;P1;durP1;ratioP1;P2;durP2;ratioP2
39128;SDS011;24864;49.940;19.770;2023-05-07T00:01:18;32.90;;;22.70;;
39128;SDS011;24864;49.940;19.770;2023-05-07T00:03:46;28.77;;;22.25;;
39128;SDS011;24864;49.940;19.770;2023-05-07T00:06:15;33.95;;;23.63;;
39128;SDS011;24864;49.940;19.770;2023-05-07T00:08:43;27.35;;;21.65;;
39128;SDS011;24864;49.940;19.770;2023-05-07T00:11:11;32.05;;;23.38;;
39128;SDS011;24864;49.940;19.770;2023-05-07T00:13:40;28.15;;;23.00;;
39128;SDS011;24864;49.940;19.770;2023-05-07T00:16:08;29.60;;;22.70;;
39128;SDS011;24864;49.940;19.770;2023-05-07T00:18:38;32.75;;;22.23;;
39128;SDS011;24864;49.940;19.770;2023-05-07T00:21:06;27.70;;;22.08;;
39128;SDS011;24864;49.940;19.770;2023-05-07T00:23:34;27.60;;;21.45;;
39128;SDS011;24864;49.940;19.770;2023-05-07T00:26:02;30.02;;;21.92;;
39128;SDS011;24864;49.940;19.770;2023-05-07T00:28:31;28.80;;;20.15;;
39128;SDS011;24864;49.940;19.770;2023-05-07T00:30:59;25.45;;;20.95;;
39128;SDS011;24864;49.940;19.770;2023-05-07T00:33:28;28.13;;;21.13;;
39128;SDS011;24864;49.940;19.770;2023-05-07T00:35:57;26.17;;;20.65;;
39128;SDS011;24864;49.940;19.770;2023-05-07T00:38:27;26.27;;;20.02;;
39128;SDS011;24864;49.940;19.770;2023-05-07T00:40:55;26.60;;;20.20;;
39128;SDS011;24864;49.940;19.770;2023-05-07T00:43:24;28.17;;;21.15;;
39128;SDS011;24864;49.940;19.770;2023-05-07T00:45:52;26.92;;;21.08;;
39128;SDS011;24864;49.940;19.770;2023-05-07T00:48:20;27.15;;;21.55;;
39128;SDS011;24864;49.940;19.770;2023-05-07T00:50:50;27.38;;;22.30;;
39128;SDS011;24864;49.940;19.770;2023-05-07T00:53:21;31.17;;;22.75;;
39128;SDS011;24864;49.940;19.770;2023-05-07T00:55:49;29.30;;;22.00;;
39128;SDS011;24864;49.940;19.770;2023-05-07T00:58:17;32.60;;;23.58;;
39128;SDS011;24864;49.940;19.770;2023-05-07T01:03:35;30.02;;;21.38;;
39128;SDS011;24864;49.940;19.770;2023-05-07T01:06:04;29.88;;;22.52;;
39128;SDS011;24864;49.940;19.770;2023-05-07T01:08:34;29.10;;;22.00;;
39128;SDS011;24864;49.940;19.770;2023-05-07T01:11:06;31.73;;;21.85;;
39128;SDS011;24864;49.940;19.770;2023-05-07T01:13:34;31.10;;;22.98;;
39128;SDS011;24864;49.940;19.770;2023-05-07T01:16:03;32.35;;;21.38;;
39128;SDS011;24864;49.940;19.770;2023-05-07T01:18:32;31.27;;;23.58;;
39128;SDS011;24864;49.940;19.770;2023-05-07T01:21:00;33.05;;;24.33;;
39128;SDS011;24864;49.940;19.770;2023-05-07T01:23:31;33.28;;;23.92;;
39128;SDS011;24864;49.940;19.770;2023-05-07T01:26:00;30.30;;;23.08;;
39128;SDS011;24864;49.940;19.770;2023-05-07T01:28:29;30.48;;;23.05;;
39128;SDS011;24864;49.940;19.770;2023-05-07T01:30:59;33.60;;;24.17;;
39128;SDS011;24864;49.940;19.770;2023-05-07T01:33:29;31.20;;;22.75;;
39128;SDS011;24864;49.940;19.770;2023-05-07T01:36:00;31.17;;;22.85;;
39128;SDS011;24864;49.940;19.770;2023-05-07T01:38:31;31.42;;;23.42;;
39128;SDS011;24864;49.940;19.770;2023-05-07T01:41:00;31.13;;;23.52;;
39128;SDS011;24864;49.940;19.770;2023-05-07T01:43:29;34.63;;;23.90;;
39128;SDS011;24864;49.940;19.770;2023-05-07T01:45:57;31.17;;;23.50;;
39128;SDS011;24864;49.940;19.770;2023-05-07T01:48:26;35.67;;;25.67;;
39128;SDS011;24864;49.940;19.770;2023-05-07T01:50:55;34.67;;;25.17;;
39128;SDS011;24864;49.940;19.770;2023-05-07T01:53:23;35.67;;;25.80;;
39128;SDS011;24864;49.940;19.770;2023-05-07T01:55:54;35.63;;;25.15;;
39128;SDS011;24864;49.940;19.770;2023-05-07T01:58:22;34.60;;;23.80;;
39128;SDS011;24864;49.940;19.770;2023-05-07T02:00:50;38.60;;;26.38;;
39128;SDS011;24864;49.940;19.770;2023-05-07T02:03:18;33.95;;;25.45;;
39128;SDS011;24864;49.940;19.770;2023-05-07T02:05:47;42.10;;;27.67;;
39128;SDS011;24864;49.940;19.770;2023-05-07T02:08:16;35.60;;;26.38;;
39128;SDS011;24864;49.940;19.770;2023-05-07T02:10:44;36.83;;;27.38;;
39128;SDS011;24864;49.940;19.770;2023-05-07T02:13:13;39.90;;;28.05;;
39128;SDS011;24864;49.940;19.770;2023-05-07T02:15:42;39.17;;;28.75;;
39128;SDS011;24864;49.940;19.770;2023-05-07T02:18:13;43.58;;;30.92;;
39128;SDS011;24864;49.940;19.770;2023-05-07T02:20:41;42.28;;;28.48;;
39128;SDS011;24864;49.940;19.770;2023-05-07T02:23:10;41.78;;;29.40;;
39128;SDS011;24864;49.940;19.770;2023-05-07T02:25:38;42.17;;;29.60;;
39128;SDS011;24864;49.940;19.770;2023-05-07T02:28:06;40.78;;;28.90;;
39128;SDS011;24864;49.940;19.770;2023-05-07T02:30:36;46.50;;;29.90;;
39128;SDS011;24864;49.940;19.770;2023-05-07T02:33:04;43.65;;;30.77;;
39128;SDS011;24864;49.940;19.770;2023-05-07T02:35:34;44.95;;;31.13;;
39128;SDS011;24864;49.940;19.770;2023-05-07T02:38:03;45.00;;;31.98;;
39128;SDS011;24864;49.940;19.770;2023-05-07T02:40:31;47.63;;;32.30;;
39128;SDS011;24864;49.940;19.770;2023-05-07T02:43:05;53.40;;;32.63;;
39128;SDS011;24864;49.940;19.770;2023-05-07T02:45:33;49.92;;;33.00;;
39128;SDS011;24864;49.940;19.770;2023-05-07T02:48:04;43.40;;;26.58;;
39128;SDS011;24864;49.940;19.770;2023-05-07T02:50:34;39.38;;;26.08;;
39128;SDS011;24864;49.940;19.770;2023-05-07T02:53:02;40.45;;;24.90;;
39128;SDS011;24864;49.940;19.770;2023-05-07T02:55:30;40.55;;;26.00;;
39128;SDS011;24864;49.940;19.770;2023-05-07T02:57:59;44.70;;;26.55;;
39128;SDS011;24864;49.940;19.770;2023-05-07T03:00:27;41.78;;;26.10;;
39128;SDS011;24864;49.940;19.770;2023-05-07T03:02:55;45.17;;;25.80;;
39128;SDS011;24864;49.940;19.770;2023-05-07T03:05:25;43.92;;;25.00;;
39128;SDS011;24864;49.940;19.770;2023-05-07T03:07:53;39.28;;;23.23;;
39128;SDS011;24864;49.940;19.770;2023-05-07T03:10:22;41.60;;;25.08;;
39128;SDS011;24864;49.940;19.770;2023-05-07T03:12:50;43.20;;;27.30;;
39128;SDS011;24864;49.940;19.770;2023-05-07T03:15:18;45.83;;;27.95;;
39128;SDS011;24864;49.940;19.770;2023-05-07T03:17:47;40.15;;;26.52;;
39128;SDS011;24864;49.940;19.770;2023-05-07T03:20:15;47.63;;;27.40;;
39128;SDS011;24864;49.940;19.770;2023-05-07T03:22:45;40.53;;;26.70;;
39128;SDS011;24864;49.940;19.770;2023-05-07T03:25:13;49.28;;;26.27;;
39128;SDS011;24864;49.940;19.770;2023-05-07T03:27:42;46.30;;;27.35;;
39128;SDS011;24864;49.940;19.770;2023-05-07T03:30:11;45.92;;;26.50;;
39128;SDS011;24864;49.940;19.770;2023-05-07T03:32:39;43.08;;;27.25;;
39128;SDS011;24864;49.940;19.770;2023-05-07T03:35:08;38.65;;;26.63;;
39128;SDS011;24864;49.940;19.770;2023-05-07T03:37:36;43.13;;;26.20;;
39128;SDS011;24864;49.940;19.770;2023-05-07T03:40:07;48.60;;;27.55;;
39128;SDS011;24864;49.940;19.770;2023-05-07T03:42:37;40.80;;;26.27;;
39128;SDS011;24864;49.940;19.770;2023-05-07T03:45:06;44.00;;;25.95;;
39128;SDS011;24864;49.940;19.770;2023-05-07T03:47:35;43.17;;;24.25;;
39128;SDS011;24864;49.940;19.770;2023-05-07T03:50:04;43.47;;;26.27;;
39128;SDS011;24864;49.940;19.770;2023-05-07T03:52:32;37.95;;;23.80;;
39128;SDS011;24864;49.940;19.770;2023-05-07T03:55:01;35.83;;;23.55;;
39128;SDS011;24864;49.940;19.770;2023-05-07T03:57:30;40.15;;;22.25;;
39128;SDS011;24864;49.940;19.770;2023-05-07T03:59:58;39.45;;;24.50;;
39128;SDS011;24864;49.940;19.770;2023-05-07T04:02:27;36.22;;;22.13;;
39128;SDS011;24864;49.940;19.770;2023-05-07T04:04:56;31.48;;;22.58;;
39128;SDS011;24864;49.940;19.770;2023-05-07T04:07:24;38.45;;;22.63;;
39128;SDS011;24864;49.940;19.770;2023-05-07T04:09:52;31.73;;;22.48;;
39128;SDS011;24864;49.940;19.770;2023-05-07T04:12:21;31.80;;;20.67;;
39128;SDS011;24864;49.940;19.770;2023-05-07T04:14:50;29.55;;;21.52;;
39128;SDS011;24864;49.940;19.770;2023-05-07T04:17:18;30.98;;;19.00;;
39128;SDS011;24864;49.940;19.770;2023-05-07T04:19:47;24.35;;;16.67;;
39128;SDS011;24864;49.940;19.770;2023-05-07T04:22:15;26.00;;;18.63;;
39128;SDS011;24864;49.940;19.770;2023-05-07T04:24:43;20.75;;;15.80;;
39128;SDS011;24864;49.940;19.770;2023-05-07T04:27:11;22.15;;;17.02;;
39128;SDS011;24864;49.940;19.770;2023-05-07T04:29:40;22.83;;;16.42;;
39128;SDS011;24864;49.940;19.770;2023-05-07T04:32:10;23.02;;;16.80;;
39128;SDS011;24864;49.940;19.770;2023-05-07T04:34:39;19.63;;;14.82;;
39128;SDS011;24864;49.940;19.770;2023-05-07T04:37:08;20.77;;;15.05;;
39128;SDS011;24864;49.940;19.770;2023-05-07T04:39:37;18.13;;;13.15;;
39128;SDS011;24864;49.940;19.770;2023-05-07T04:42:05;19.38;;;14.38;;
39128;SDS011;24864;49.940;19.770;2023-05-07T04:44:35;27.95;;;14.15;;
39128;SDS011;24864;49.940;19.770;2023-05-07T04:47:04;17.30;;;12.70;;
39128;SDS011;24864;49.940;19.770;2023-05-07T04:49:34;20.52;;;14.00;;
39128;SDS011;24864;49.940;19.770;2023-05-07T04:52:02;14.20;;;11.30;;
39128;SDS011;24864;49.940;19.770;2023-05-07T04:54:31;12.80;;;9.40;;
39128;SDS011;24864;49.940;19.770;2023-05-07T04:56:59;11.15;;;8.48;;
39128;SDS011;24864;49.940;19.770;2023-05-07T04:59:27;10.50;;;8.43;;
39128;SDS011;24864;49.940;19.770;2023-05-07T05:01:55;14.02;;;8.65;;
39128;SDS011;24864;49.940;19.770;2023-05-07T05:04:24;11.02;;;9.02;;
39128;SDS011;24864;49.940;19.770;2023-05-07T05:06:53;10.35;;;8.15;;
39128;SDS011;24864;49.940;19.770;2023-05-07T05:09:22;8.88;;;7.95;;
39128;SDS011;24864;49.940;19.770;2023-05-07T05:11:50;10.43;;;9.32;;
39128;SDS011;24864;49.940;19.770;2023-05-07T05:14:19;14.68;;;10.43;;
39128;SDS011;24864;49.940;19.770;2023-05-07T05:16:47;18.58;;;12.85;;
39128;SDS011;24864;49.940;19.770;2023-05-07T05:19:15;18.63;;;14.85;;
39128;SDS011;24864;49.940;19.770;2023-05-07T05:21:43;13.73;;;12.32;;
39128;SDS011;24864;49.940;19.770;2023-05-07T05:24:13;16.20;;;11.90;;
39128;SDS011;24864;49.940;19.770;2023-05-07T05:26:41;11.05;;;9.70;;
39128;SDS011;24864;49.940;19.770;2023-05-07T05:29:10;13.68;;;8.25;;
39128;SDS011;24864;49.940;19.770;2023-05-07T05:31:38;11.40;;;8.13;;
39128;SDS011;24864;49.940;19.770;2023-05-07T05:34:08;9.45;;;6.95;;
39128;SDS011;24864;49.940;19.770;2023-05-07T05:36:36;11.00;;;8.32;;
39128;SDS011;24864;49.940;19.770;2023-05-07T05:39:04;10.48;;;7.32;;
39128;SDS011;24864;49.940;19.770;2023-05-07T05:41:34;13.23;;;8.40;;
39128;SDS011;24864;49.940;19.770;2023-05-07T05:44:02;8.98;;;7.53;;
39128;SDS011;24864;49.940;19.770;2023-05-07T05:46:31;13.80;;;8.40;;
39128;SDS011;24864;49.940;19.770;2023-05-07T05:49:02;10.35;;;9.35;;
39128;SDS011;24864;49.940;19.770;2023-05-07T05:51:30;8.32;;;7.38;;
39128;SDS011;24864;49.940;19.770;2023-05-07T05:53:59;12.55;;;9.02;;
39128;SDS011;24864;49.940;19.770;2023-05-07T05:56:27;14.38;;;8.65;;
39128;SDS011;24864;49.940;19.770;2023-05-07T05:58:57;14.73;;;8.63;;
39128;SDS011;24864;49.940;19.770;2023-05-07T06:01:25;9.00;;;8.18;;
39128;SDS011;24864;49.940;19.770;2023-05-07T06:03:53;7.95;;;6.22;;
39128;SDS011;24864;49.940;19.770;2023-05-07T06:06:21;6.75;;;6.05;;
39128;SDS011;24864;49.940;19.770;2023-05-07T06:08:50;6.97;;;6.07;;
39128;SDS011;24864;49.940;19.770;2023-05-07T06:11:18;6.32;;;5.63;;
39128;SDS011;24864;49.940;19.770;2023-05-07T06:13:47;6.82;;;5.22;;
39128;SDS011;24864;49.940;19.770;2023-05-07T06:16:16;5.65;;;5.05;;
39128;SDS011;24864;49.940;19.770;2023-05-07T06:18:45;5.95;;;5.10;;
39128;SDS011;24864;49.940;19.770;2023-05-07T06:21:13;6.85;;;5.07;;
39128;SDS011;24864;49.940;19.770;2023-05-07T06:23:41;6.90;;;5.35;;
39128;SDS011;24864;49.940;19.770;2023-05-07T06:26:10;8.00;;;4.63;;
39128;SDS011;24864;49.940;19.770;2023-05-07T06:28:38;6.10;;;4.03;;
39128;SDS011;24864;49.940;19.770;2023-05-07T06:31:13;9.60;;;4.47;;
39128;SDS011;24864;49.940;19.770;2023-05-07T06:33:44;4.93;;;3.60;;
39128;SDS011;24864;49.940;19.770;2023-05-07T06:36:12;5.93;;;4.38;;
39128;SDS011;24864;49.940;19.770;2023-05-07T06:38:41;4.68;;;4.20;;
39128;SDS011;24864;49.940;19.770;2023-05-07T06:41:09;6.10;;;4.20;;
39128;SDS011;24864;49.940;19.770;2023-05-07T06:43:37;7.60;;;5.00;;
39128;SDS011;24864;49.940;19.770;2023-05-07T06:46:05;7.55;;;5.40;;
39128;SDS011;24864;49.940;19.770;2023-05-07T06:48:34;7.03;;;6.32;;
39128;SDS011;24864;49.940;19.770;2023-05-07T06:51:04;13.93;;;8.93;;
39128;SDS011;24864;49.940;19.770;2023-05-07T06:53:32;11.32;;;7.63;;
39128;SDS011;24864;49.940;19.770;2023-05-07T06:56:01;7.80;;;6.75;;
39128;SDS011;24864;49.940;19.770;2023-05-07T06:58:30;11.05;;;7.25;;
39128;SDS011;24864;49.940;19.770;2023-05-07T07:00:58;8.48;;;6.00;;
39128;SDS011;24864;49.940;19.770;2023-05-07T07:03:27;7.40;;;4.93;;
39128;SDS011;24864;49.940;19.770;2023-05-07T07:05:55;8.63;;;6.07;;
39128;SDS011;24864;49.940;19.770;2023-05-07T07:08:25;6.30;;;5.20;;
39128;SDS011;24864;49.940;19.770;2023-05-07T07:10:53;14.80;;;13.25;;
39128;SDS011;24864;49.940;19.770;2023-05-07T07:13:21;18.95;;;13.95;;
39128;SDS011;24864;49.940;19.770;2023-05-07T07:15:49;17.45;;;14.60;;
39128;SDS011;24864;49.940;19.770;2023-05-07T07:18:19;14.57;;;12.75;;
39128;SDS011;24864;49.940;19.770;2023-05-07T07:20:47;14.02;;;10.27;;
39128;SDS011;24864;49.940;19.770;2023-05-07T07:23:16;7.38;;;6.45;;
39128;SDS011;24864;49.940;19.770;2023-05-07T07:25:45;8.02;;;5.95;;
39128;SDS011;24864;49.940;19.770;2023-05-07T07:28:14;10.73;;;7.72;;
39128;SDS011;24864;49.940;19.770;2023-05-07T07:30:42;7.50;;;5.80;;
39128;SDS011;24864;49.940;19.770;2023-05-07T07:33:10;8.60;;;7.78;;
39128;SDS011;24864;49.940;19.770;2023-05-07T07:35:39;11.10;;;7.72;;
39128;SDS011;24864;49.940;19.770;2023-05-07T07:38:07;8.05;;;5.78;;
39128;SDS011;24864;49.940;19.770;2023-05-07T07:40:35;7.70;;;6.90;;
39128;SDS011;24864;49.940;19.770;2023-05-07T07:43:05;7.38;;;5.80;;
39128;SDS011;24864;49.940;19.770;2023-05-07T07:45:33;7.78;;;6.97;;
39128;SDS011;24864;49.940;19.770;2023-05-07T07:48:02;11.18;;;10.07;;
39128;SDS011;24864;49.940;19.770;2023-05-07T07:50:31;9.02;;;8.13;;
39128;SDS011;24864;49.940;19.770;2023-05-07T07:53:11;8.57;;;7.68;;
39128;SDS011;24864;49.940;19.770;2023-05-07T07:55:39;10.00;;;8.55;;
39128;SDS011;24864;49.940;19.770;2023-05-07T07:58:09;11.43;;;10.32;;
39128;SDS011;24864;49.940;19.770;2023-05-07T08:00:37;12.75;;;10.90;;
39128;SDS011;24864;49.940;19.770;2023-05-07T08:03:08;11.93;;;10.23;;
39128;SDS011;24864;49.940;19.770;2023-05-07T08:05:37;7.82;;;6.47;;
39128;SDS011;24864;49.940;19.770;2023-05-07T08:10:44;8.10;;;5.60;;
39128;SDS011;24864;49.940;19.770;2023-05-07T08:13:18;9.80;;;7.55;;
39128;SDS011;24864;49.940;19.770;2023-05-07T08:15:46;8.32;;;7.45;;
39128;SDS011;24864;49.940;19.770;2023-05-07T08:18:14;6.28;;;5.43;;
39128;SDS011;24864;49.940;19.770;2023-05-07T08:20:43;6.93;;;6.32;;
39128;SDS011;24864;49.940;19.770;2023-05-07T08:23:11;10.02;;;6.90;;
39128;SDS011;24864;49.940;19.770;2023-05-07T08:25:40;6.75;;;6.10;;
39128;SDS011;24864;49.940;19.770;2023-05-07T08:28:09;7.80;;;6.90;;
39128;SDS011;24864;49.940;19.770;2023-05-07T08:30:38;8.90;;;8.00;;
39128;SDS011;24864;49.940;19.770;2023-05-07T08:33:08;13.20;;;11.80;;
39128;SDS011;24864;49.940;19.770;2023-05-07T08:35:36;13.93;;;12.52;;
39128;SDS011;24864;49.940;19.770;2023-05-07T08:38:05;10.88;;;9.63;;
39128;SDS011;24864;49.940;19.770;2023-05-07T08:40:34;7.32;;;6.13;;
39128;SDS011;24864;49.940;19.770;2023-05-07T08:43:05;6.28;;;5.63;;
39128;SDS011;24864;49.940;19.770;2023-05-07T08:45:34;10.45;;;8.25;;
39128;SDS011;24864;49.940;19.770;2023-05-07T08:48:05;9.23;;;6.85;;
39128;SDS011;24864;49.940;19.770;2023-05-07T08:50:37;7.50;;;6.65;;
39128;SDS011;24864;49.940;19.770;2023-05-07T08:53:06;6.80;;;6.00;;
39128;SDS011;24864;49.940;19.770;2023-05-07T08:55:34;11.43;;;7.55;;
39128;SDS011;24864;49.940;19.770;2023-05-07T08:58:03;12.27;;;8.75;;
39128;SDS011;24864;49.940;19.770;2023-05-07T09:00:31;8.45;;;7.65;;
39128;SDS011;24864;49.940;19.770;2023-05-07T09:03:00;6.53;;;5.82;;
39128;SDS011;24864;49.940;19.770;2023-05-07T09:05:30;6.35;;;5.30;;
39128;SDS011;24864;49.940;19.770;2023-05-07T09:07:59;7.53;;;6.82;;
39128;SDS011;24864;49.940;19.770;2023-05-07T09:10:29;6.82;;;6.13;;
39128;SDS011;24864;49.940;19.770;2023-05-07T09:12:57;8.52;;;7.60;;
39128;SDS011;24864;49.940;19.770;2023-05-07T09:15:25;9.50;;;7.30;;
39128;SDS011;24864;49.940;19.770;2023-05-07T09:17:54;9.27;;;7.25;;
39128;SDS011;24864;49.940;19.770;2023-05-07T09:20:31;7.45;;;5.53;;
39128;SDS011;24864;49.940;19.770;2023-05-07T09:22:59;5.82;;;5.20;;
39128;SDS011;24864;49.940;19.770;2023-05-07T09:25:28;5.75;;;5.15;;
39128;SDS011;24864;49.940;19.770;2023-05-07T09:27:56;8.85;;;6.97;;
39128;SDS011;24864;49.940;19.770;2023-05-07T09:30:27;9.73;;;8.70;;
39128;SDS011;24864;49.940;19.770;2023-05-07T09:32:55;10.70;;;8.82;;
39128;SDS011;24864;49.940;19.770;2023-05-07T09:35:24;9.98;;;8.13;;
39128;SDS011;24864;49.940;19.770;2023-05-07T09:37:56;8.98;;;7.85;;
39128;SDS011;24864;49.940;19.770;2023-05-07T09:40:29;12.20;;;7.57;;
39128;SDS011;24864;49.940;19.770;2023-05-07T09:43:08;8.57;;;7.70;;
39128;SDS011;24864;49.940;19.770;2023-05-07T09:45:37;8.32;;;7.25;;
39128;SDS011;24864;49.940;19.770;2023-05-07T09:48:07;7.88;;;6.53;;
39128;SDS011;24864;49.940;19.770;2023-05-07T09:50:36;12.10;;;7.53;;
39128;SDS011;24864;49.940;19.770;2023-05-07T09:53:08;11.00;;;8.55;;
39128;SDS011;24864;49.940;19.770;2023-05-07T09:55:37;12.82;;;10.85;;
39128;SDS011;24864;49.940;19.770;2023-05-07T09:58:06;14.90;;;11.18;;
39128;SDS011;24864;49.940;19.770;2023-05-07T10:00:35;14.40;;;12.90;;
39128;SDS011;24864;49.940;19.770;2023-05-07T10:03:04;19.40;;;15.82;;
39128;SDS011;24864;49.940;19.770;2023-05-07T10:05:32;23.20;;;15.10;;
39128;SDS011;24864;49.940;19.770;2023-05-07T10:08:01;17.38;;;13.70;;
39128;SDS011;24864;49.940;19.770;2023-05-07T10:10:32;24.67;;;17.08;;
39128;SDS011;24864;49.940;19.770;2023-05-07T10:13:00;17.45;;;14.07;;
39128;SDS011;24864;49.940;19.770;2023-05-07T10:15:32;23.85;;;19.08;;
39128;SDS011;24864;49.940;19.770;2023-05-07T10:18:01;12.15;;;9.70;;
39128;SDS011;24864;49.940;19.770;2023-05-07T10:20:30;12.88;;;8.27;;
39128;SDS011;24864;49.940;19.770;2023-05-07T10:22:59;12.60;;;8.05;;
39128;SDS011;24864;49.940;19.770;2023-05-07T10:25:33;10.88;;;8.88;;
39128;SDS011;24864;49.940;19.770;2023-05-07T10:28:03;16.75;;;11.05;;
39128;SDS011;24864;49.940;19.770;2023-05-07T10:30:35;8.53;;;7.63;;
39128;SDS011;24864;49.940;19.770;2023-05-07T10:33:09;11.90;;;10.52;;
39128;SDS011;24864;49.940;19.770;2023-05-07T10:35:39;10.45;;;8.18;;
39128;SDS011;24864;49.940;19.770;2023-05-07T10:38:09;8.10;;;6.65;;
39128;SDS011;24864;49.940;19.770;2023-05-07T10:40:39;7.50;;;6.72;;
39128;SDS011;24864;49.940;19.770;2023-05-07T10:43:07;7.68;;;6.88;;
39128;SDS011;24864;49.940;19.770;2023-05-07T10:45:36;8.80;;;7.90;;
39128;SDS011;24864;49.940;19.770;2023-05-07T10:48:05;26.60;;;16.25;;
39128;SDS011;24864;49.940;19.770;2023-05-07T10:51:17;31.92;;;18.23;;
39128;SDS011;24864;49.940;19.770;2023-05-07T10:56:25;51.05;;;27.70;;
39128;SDS011;24864;49.940;19.770;2023-05-07T10:58:54;7.50;;;6.00;;
39128;SDS011;24864;49.940;19.770;2023-05-07T11:01:49;10.40;;;7.22;;
39128;SDS011;24864;49.940;19.770;2023-05-07T11:04:18;8.38;;;6.15;;
39128;SDS011;24864;49.940;19.770;2023-05-07T11:07:09;7.97;;;6.10;;
39128;SDS011;24864;49.940;19.770;2023-05-07T11:09:58;7.70;;;6.90;;
39128;SDS011;24864;49.940;19.770;2023-05-07T11:15:37;7.93;;;5.80;;
39128;SDS011;24864;49.940;19.770;2023-05-07T11:18:13;7.53;;;6.00;;
39128;SDS011;24864;49.940;19.770;2023-05-07T11:20:46;6.82;;;6.00;;
39128;SDS011;24864;49.940;19.770;2023-05-07T11:26:25;8.63;;;5.55;;
39128;SDS011;24864;49.940;19.770;2023-05-07T11:28:57;7.93;;;7.13;;
39128;SDS011;24864;49.940;19.770;2023-05-07T11:31:27;10.65;;;7.97;;
39128;SDS011;24864;49.940;19.770;2023-05-07T11:33:56;10.52;;;8.02;;
39128;SDS011;24864;49.940;19.770;2023-05-07T11:36:25;9.68;;;8.43;;
39128;SDS011;24864;49.940;19.770;2023-05-07T11:38:59;9.68;;;8.32;;
39128;SDS011;24864;49.940;19.770;2023-05-07T11:41:34;8.80;;;7.10;;
39128;SDS011;24864;49.940;19.770;2023-05-07T11:44:05;10.20;;;7.53;;
39128;SDS011;24864;49.940;19.770;2023-05-07T11:46:33;7.75;;;6.82;;
39128;SDS011;24864;49.940;19.770;2023-05-07T11:49:01;11.23;;;6.35;;
39128;SDS011;24864;49.940;19.770;2023-05-07T11:51:30;8.23;;;6.53;;
39128;SDS011;24864;49.940;19.770;2023-05-07T11:53:58;7.13;;;6.43;;
39128;SDS011;24864;49.940;19.770;2023-05-07T11:56:26;16.65;;;6.45;;
39128;SDS011;24864;49.940;19.770;2023-05-07T11:58:54;9.00;;;8.05;;
39128;SDS011;24864;49.940;19.770;2023-05-07T12:01:24;15.65;;;10.38;;
39128;SDS011;24864;49.940;19.770;2023-05-07T12:03:52;12.63;;;9.57;;
39128;SDS011;24864;49.940;19.770;2023-05-07T12:06:21;11.05;;;9.95;;
39128;SDS011;24864;49.940;19.770;2023-05-07T12:08:49;13.02;;;10.70;;
39128;SDS011;24864;49.940;19.770;2023-05-07T12:11:22;12.98;;;10.75;;
39128;SDS011;24864;49.940;19.770;2023-05-07T12:13:51;21.50;;;14.93;;
39128;SDS011;24864;49.940;19.770;2023-05-07T12:16:26;12.23;;;11.13;;
39128;SDS011;24864;49.940;19.770;2023-05-07T12:18:55;11.18;;;10.07;;
39128;SDS011;24864;49.940;19.770;2023-05-07T12:21:25;10.13;;;7.03;;
39128;SDS011;24864;49.940;19.770;2023-05-07T12:23:53;6.95;;;6.10;;
39128;SDS011;24864;49.940;19.770;2023-05-07T12:26:22;6.78;;;5.32;;
39128;SDS011;24864;49.940;19.770;2023-05-07T12:28:50;6.38;;;5.30;;
39128;SDS011;24864;49.940;19.770;2023-05-07T12:31:18;6.40;;;5.80;;
39128;SDS011;24864;49.940;19.770;2023-05-07T12:33:48;38.95;;;18.13;;
39128;SDS011;24864;49.940;19.770;2023-05-07T12:36:18;8.38;;;7.57;;
39128;SDS011;24864;49.940;19.770;2023-05-07T12:38:48;6.22;;;5.50;;
39128;SDS011;24864;49.940;19.770;2023-05-07T12:41:17;6.95;;;5.65;;
39128;SDS011;24864;49.940;19.770;2023-05-07T12:43:52;13.05;;;8.80;;
39128;SDS011;24864;49.940;19.770;2023-05-07T12:46:24;11.15;;;8.25;;
39128;SDS011;24864;49.940;19.770;2023-05-07T12:48:54;11.60;;;8.07;;
39128;SDS011;24864;49.940;19.770;2023-05-07T12:51:22;11.73;;;7.07;;
39128;SDS011;24864;49.940;19.770;2023-05-07T12:53:50;14.75;;;9.57;;
39128;SDS011;24864;49.940;19.770;2023-05-07T12:56:24;8.88;;;6.38;;
39128;SDS011;24864;49.940;19.770;2023-05-07T12:58:52;5.07;;;3.85;;
39128;SDS011;24864;49.940;19.770;2023-05-07T13:01:28;6.82;;;3.65;;
39128;SDS011;24864;49.940;19.770;2023-05-07T13:04:02;3.90;;;3.50;;
39128;SDS011;24864;49.940;19.770;2023-05-07T13:06:31;8.48;;;5.07;;
39128;SDS011;24864;49.940;19.770;2023-05-07T13:08:59;4.97;;;4.47;;
39128;SDS011;24864;49.940;19.770;2023-05-07T13:11:27;6.70;;;5.72;;
39128;SDS011;24864;49.940;19.770;2023-05-07T13:13:55;23.70;;;13.63;;
39128;SDS011;24864;49.940;19.770;2023-05-07T13:16:24;22.75;;;12.55;;
39128;SDS011;24864;49.940;19.770;2023-05-07T13:18:52;28.83;;;15.52;;
39128;SDS011;24864;49.940;19.770;2023-05-07T13:21:22;19.02;;;11.77;;
39128;SDS011;24864;49.940;19.770;2023-05-07T13:23:50;6.65;;;5.32;;
39128;SDS011;24864;49.940;19.770;2023-05-07T13:26:18;9.88;;;8.35;;
39128;SDS011;24864;49.940;19.770;2023-05-07T13:28:52;8.65;;;7.70;;
39128;SDS011;24864;49.940;19.770;2023-05-07T13:31:21;14.68;;;9.50;;
39128;SDS011;24864;49.940;19.770;2023-05-07T13:33:49;8.95;;;7.00;;
39128;SDS011;24864;49.940;19.770;2023-05-07T13:36:19;17.75;;;11.13;;
39128;SDS011;24864;49.940;19.770;2023-05-07T13:38:49;41.80;;;19.10;;
39128;SDS011;24864;49.940;19.770;2023-05-07T13:41:18;106.43;;;41.20;;
39128;SDS011;24864;49.940;19.770;2023-05-07T13:43:46;37.63;;;14.85;;
39128;SDS011;24864;49.940;19.770;2023-05-07T13:46:15;12.10;;;7.22;;
39128;SDS011;24864;49.940;19.770;2023-05-07T13:48:43;47.72;;;20.17;;
39128;SDS011;24864;49.940;19.770;2023-05-07T13:51:12;74.35;;;34.90;;
39128;SDS011;24864;49.940;19.770;2023-05-07T13:53:40;25.27;;;14.30;;
39128;SDS011;24864;49.940;19.770;2023-05-07T13:56:10;23.38;;;14.45;;
39128;SDS011;24864;49.940;19.770;2023-05-07T13:58:38;22.67;;;13.05;;
39128;SDS011;24864;49.940;19.770;2023-05-07T14:01:22;30.65;;;14.77;;
39128;SDS011;24864;49.940;19.770;2023-05-07T14:03:50;25.67;;;13.32;;
39128;SDS011;24864;49.940;19.770;2023-05-07T14:06:19;18.42;;;10.48;;
39128;SDS011;24864;49.940;19.770;2023-05-07T14:08:48;13.27;;;8.80;;
39128;SDS011;24864;49.940;19.770;2023-05-07T14:11:17;11.75;;;6.45;;
39128;SDS011;24864;49.940;19.770;2023-05-07T14:13:47;12.23;;;8.63;;
39128;SDS011;24864;49.940;19.770;2023-05-07T14:16:15;9.05;;;7.03;;
39128;SDS011;24864;49.940;19.770;2023-05-07T14:18:44;9.38;;;6.75;;
39128;SDS011;24864;49.940;19.770;2023-05-07T14:21:12;13.13;;;7.35;;
39128;SDS011;24864;49.940;19.770;2023-05-07T14:23:40;12.93;;;8.77;;
39128;SDS011;24864;49.940;19.770;2023-05-07T14:26:09;10.05;;;5.57;;
39128;SDS011;24864;49.940;19.770;2023-05-07T14:28:38;7.57;;;5.80;;
39128;SDS011;24864;49.940;19.770;2023-05-07T14:31:08;8.77;;;7.00;;
39128;SDS011;24864;49.940;19.770;2023-05-07T14:33:37;7.28;;;5.50;;
39128;SDS011;24864;49.940;19.770;2023-05-07T14:36:07;10.07;;;8.30;;
39128;SDS011;24864;49.940;19.770;2023-05-07T14:38:36;10.93;;;6.45;;
39128;SDS011;24864;49.940;19.770;2023-05-07T14:41:04;82.68;;;33.15;;
39128;SDS011;24864;49.940;19.770;2023-05-07T14:43:32;12.75;;;7.57;;
39128;SDS011;24864;49.940;19.770;2023-05-07T14:46:02;11.95;;;7.47;;